createdAt,value
2018-11-03T00:02:01.675Z,26.10
2018-11-03T00:04:30.511Z,25.93
2018-11-03T00:06:59.503Z,23.20
2018-11-03T00:09:28.353Z,22.97
2018-11-03T00:11:57.165Z,22.03
2018-11-03T00:14:26.052Z,20.67
2018-11-03T00:16:55.631Z,23.00
2018-11-03T00:19:24.431Z,21.27
2018-11-03T00:21:53.341Z,21.67
2018-11-03T00:24:22.154Z,20.43
2018-11-03T00:26:51.006Z,21.60
2018-11-03T00:29:19.828Z,23.30
2018-11-03T00:31:48.707Z,26.70
2018-11-03T00:34:17.637Z,23.83
2018-11-03T00:36:46.493Z,21.67
2018-11-03T00:39:15.345Z,25.57
2018-11-03T00:41:44.138Z,18.57
2018-11-03T00:44:12.923Z,21.57
2018-11-03T00:46:41.755Z,19.03
2018-11-03T00:49:10.632Z,23.33
2018-11-03T00:51:39.443Z,21.77
2018-11-03T00:54:08.352Z,17.03
2018-11-03T00:56:37.241Z,13.87
2018-11-03T00:59:06.081Z,16.77
2018-11-03T01:01:34.972Z,12.33
2018-11-03T01:04:03.824Z,13.33
2018-11-03T01:06:32.688Z,16.73
2018-11-03T01:09:01.513Z,15.20
2018-11-03T01:11:30.332Z,12.93
2018-11-03T01:13:59.189Z,14.50
2018-11-03T01:16:28.045Z,14.83
2018-11-03T01:18:56.872Z,14.70
2018-11-03T01:21:25.739Z,14.77
2018-11-03T01:23:54.591Z,11.90
2018-11-03T01:26:23.417Z,13.83
2018-11-03T01:28:52.206Z,13.47
2018-11-03T01:31:21.008Z,15.37
2018-11-03T01:33:49.960Z,17.03
2018-11-03T01:36:18.778Z,17.27
2018-11-03T01:38:47.683Z,15.37
2018-11-03T01:41:16.554Z,19.83
2018-11-03T01:43:45.424Z,18.60
2018-11-03T01:46:14.415Z,19.50
2018-11-03T01:48:43.479Z,20.27
2018-11-03T01:51:12.337Z,19.07
2018-11-03T01:53:41.203Z,18.10
2018-11-03T01:56:10.007Z,18.13
2018-11-03T01:58:38.852Z,13.47
2018-11-03T02:01:07.653Z,18.50
2018-11-03T02:03:36.522Z,18.57
2018-11-03T02:06:05.562Z,18.37
2018-11-03T02:08:34.456Z,16.07
2018-11-03T02:11:03.292Z,18.87
2018-11-03T02:13:32.157Z,16.00
2018-11-03T02:16:00.992Z,16.97
2018-11-03T02:18:29.832Z,16.70
2018-11-03T02:20:58.737Z,14.23
2018-11-03T02:23:27.555Z,19.37
2018-11-03T02:25:56.441Z,17.23
2018-11-03T02:28:25.288Z,14.53
2018-11-03T02:30:54.181Z,17.50
2018-11-03T02:33:23.043Z,18.90
2018-11-03T02:35:51.879Z,13.50
2018-11-03T02:38:20.799Z,16.00
2018-11-03T02:40:49.608Z,18.10
2018-11-03T02:43:18.476Z,16.43
2018-11-03T02:45:47.329Z,16.57
2018-11-03T02:48:16.207Z,14.50
2018-11-03T02:50:45.068Z,18.17
2018-11-03T02:53:13.890Z,17.37
2018-11-03T02:55:43.011Z,16.40
2018-11-03T02:58:11.852Z,18.17
2018-11-03T03:00:40.801Z,16.00
2018-11-03T03:03:09.686Z,17.57
2018-11-03T03:05:38.503Z,19.33
2018-11-03T03:08:07.392Z,23.47
2018-11-03T03:10:36.217Z,18.40
2018-11-03T03:13:05.240Z,17.73
2018-11-03T03:15:34.107Z,21.93
2018-11-03T03:18:02.885Z,17.43
2018-11-03T03:20:31.666Z,19.40
2018-11-03T03:23:00.552Z,22.30
2018-11-03T03:25:29.412Z,19.73
2018-11-03T03:27:58.200Z,20.13
2018-11-03T03:30:27.041Z,23.80
2018-11-03T03:32:55.942Z,20.77
2018-11-03T03:35:24.917Z,19.73
2018-11-03T03:37:53.774Z,22.27
2018-11-03T03:40:22.625Z,20.93
2018-11-03T03:42:51.493Z,21.83
2018-11-03T03:45:20.317Z,23.13
2018-11-03T03:47:49.166Z,23.83
2018-11-03T03:50:17.969Z,24.30
2018-11-03T03:52:46.836Z,25.33
2018-11-03T03:55:15.721Z,24.83
2018-11-03T03:57:44.522Z,28.33
2018-11-03T04:00:13.445Z,26.60
2018-11-03T04:02:42.241Z,26.90
2018-11-03T04:05:11.235Z,26.40
2018-11-03T04:07:40.132Z,23.47
2018-11-03T04:10:09.898Z,22.03
2018-11-03T04:12:38.761Z,24.37
2018-11-03T04:15:07.815Z,22.60
2018-11-03T04:17:36.605Z,26.57
2018-11-03T04:20:06.144Z,22.67
2018-11-03T04:22:34.939Z,24.23
2018-11-03T04:25:04.112Z,28.67
2018-11-03T04:27:32.927Z,31.47
2018-11-03T04:30:01.807Z,26.87
2018-11-03T04:32:30.628Z,31.00
2018-11-03T04:34:59.634Z,32.60
2018-11-03T04:37:28.458Z,31.07
2018-11-03T04:39:57.296Z,30.47
2018-11-03T04:42:26.147Z,33.30
2018-11-03T04:44:54.958Z,32.03
2018-11-03T04:47:23.823Z,32.53
2018-11-03T04:49:53.676Z,31.10
2018-11-03T04:52:22.512Z,30.17
2018-11-03T04:54:51.392Z,33.23
2018-11-03T04:57:20.201Z,36.63
2018-11-03T04:59:49.075Z,25.10
2018-11-03T05:02:17.941Z,32.47
2018-11-03T05:04:46.767Z,37.10
2018-11-03T05:07:15.736Z,29.37
2018-11-03T05:09:44.911Z,31.63
2018-11-03T05:12:13.775Z,38.40
2018-11-03T05:14:42.678Z,32.50
2018-11-03T05:17:11.539Z,26.70
2018-11-03T05:19:40.346Z,29.50
2018-11-03T05:22:09.208Z,31.30
2018-11-03T05:24:38.056Z,31.40
2018-11-03T05:27:06.977Z,31.57
2018-11-03T05:29:35.784Z,24.47
2018-11-03T05:32:04.602Z,29.87
2018-11-03T05:34:33.517Z,35.40
2018-11-03T05:37:02.369Z,28.03
2018-11-03T05:39:31.225Z,33.03
2018-11-03T05:42:00.082Z,37.83
2018-11-03T05:44:28.936Z,33.37
2018-11-03T05:46:57.747Z,26.93
2018-11-03T05:49:26.604Z,28.30
2018-11-03T05:51:55.487Z,34.30
2018-11-03T05:54:24.309Z,29.90
2018-11-03T05:56:53.154Z,34.87
2018-11-03T05:59:21.989Z,29.07
2018-11-03T06:01:50.825Z,31.10
2018-11-03T06:04:19.684Z,33.43
2018-11-03T06:06:48.561Z,29.70
2018-11-03T06:09:17.346Z,29.27
2018-11-03T06:11:46.204Z,29.83
2018-11-03T06:14:15.002Z,35.67
2018-11-03T06:16:43.859Z,36.80
2018-11-03T06:19:12.661Z,30.27
2018-11-03T06:21:41.555Z,29.07
2018-11-03T06:24:10.345Z,29.40
2018-11-03T06:26:39.212Z,33.83
2018-11-03T06:29:08.139Z,29.03
2018-11-03T06:31:36.961Z,32.43
2018-11-03T06:34:05.971Z,26.30
2018-11-03T06:36:34.822Z,30.67
2018-11-03T06:39:05.093Z,31.03
2018-11-03T06:41:33.909Z,34.90
2018-11-03T06:44:02.776Z,35.40
2018-11-03T06:46:31.627Z,30.67
2018-11-03T06:49:05.857Z,29.83
2018-11-03T06:51:34.710Z,31.93
2018-11-03T06:54:04.040Z,31.10
2018-11-03T06:56:33.459Z,36.73
2018-11-03T06:59:02.435Z,30.37
2018-11-03T07:01:31.465Z,30.33
2018-11-03T07:04:00.315Z,33.73
2018-11-03T07:06:29.168Z,31.67
2018-11-03T07:08:57.993Z,27.10
2018-11-03T07:11:26.887Z,31.60
2018-11-03T07:13:55.739Z,32.00
2018-11-03T07:16:24.642Z,26.93
2018-11-03T07:18:53.534Z,29.97
2018-11-03T07:21:23.284Z,28.87
2018-11-03T07:23:52.146Z,32.03
2018-11-03T07:26:21.079Z,37.30
2018-11-03T07:28:49.934Z,32.23
2018-11-03T07:31:18.815Z,31.67
2018-11-03T07:33:47.691Z,30.07
2018-11-03T07:36:16.662Z,30.77
2018-11-03T07:38:45.533Z,31.57
2018-11-03T07:41:14.445Z,28.43
2018-11-03T07:43:43.375Z,31.80
2018-11-03T07:46:12.273Z,30.37
2018-11-03T07:48:41.290Z,31.37
2018-11-03T07:51:10.384Z,29.07
2018-11-03T07:53:39.230Z,30.20
2018-11-03T07:56:08.206Z,32.63
2018-11-03T07:58:37.133Z,32.63
2018-11-03T08:01:06.043Z,32.53
2018-11-03T08:03:34.940Z,26.73
2018-11-03T08:06:03.789Z,29.23
2018-11-03T08:08:32.598Z,27.90
2018-11-03T08:11:01.667Z,24.87
2018-11-03T08:13:30.527Z,28.37
2018-11-03T08:15:59.412Z,25.60
2018-11-03T08:18:28.281Z,26.90
2018-11-03T08:20:57.583Z,27.10
2018-11-03T08:23:26.433Z,27.43
2018-11-03T08:25:55.411Z,28.10
2018-11-03T08:28:24.323Z,24.63
2018-11-03T08:30:53.204Z,27.27
2018-11-03T08:33:22.524Z,28.87
2018-11-03T08:35:51.459Z,30.63
2018-11-03T08:38:21.121Z,25.27
2018-11-03T08:40:50.233Z,26.97
2018-11-03T08:43:19.139Z,24.60
2018-11-03T08:45:48.037Z,26.43
2018-11-03T08:48:17.059Z,25.53
2018-11-03T08:50:45.888Z,22.97
2018-11-03T08:53:14.777Z,29.50
2018-11-03T08:55:43.583Z,30.70
2018-11-03T08:58:12.446Z,26.67
2018-11-03T09:00:41.289Z,29.97
2018-11-03T09:03:10.158Z,28.33
2018-11-03T09:05:38.991Z,25.03
2018-11-03T09:08:07.913Z,29.47
2018-11-03T09:10:37.022Z,27.80
2018-11-03T09:13:06.042Z,33.03
2018-11-03T09:15:34.840Z,28.00
2018-11-03T09:18:03.712Z,25.53
2018-11-03T09:20:32.537Z,26.90
2018-11-03T09:23:01.474Z,32.93
2018-11-03T09:25:30.337Z,31.97
2018-11-03T09:28:00.603Z,29.97
2018-11-03T09:30:29.437Z,28.43
2018-11-03T09:32:58.320Z,25.47
2018-11-03T09:35:27.193Z,26.27
2018-11-03T09:37:56.075Z,28.13
2018-11-03T09:40:24.939Z,23.73
2018-11-03T09:42:53.811Z,29.90
2018-11-03T09:45:22.647Z,32.27
2018-11-03T09:47:51.484Z,28.87
2018-11-03T09:50:21.267Z,29.63
2018-11-03T09:52:50.162Z,28.13
2018-11-03T09:55:19.710Z,27.93
2018-11-03T09:57:48.550Z,28.67
2018-11-03T10:00:18.826Z,30.50
2018-11-03T10:02:47.773Z,28.10
2018-11-03T10:05:17.071Z,24.60
2018-11-03T10:07:45.999Z,27.70
2018-11-03T10:10:17.042Z,28.40
2018-11-03T10:12:46.021Z,24.47
2018-11-03T10:15:16.216Z,27.67
2018-11-03T10:17:45.654Z,25.03
2018-11-03T10:20:14.525Z,23.07
2018-11-03T10:22:43.381Z,27.90
2018-11-03T10:25:15.190Z,24.07
2018-11-03T10:27:44.665Z,26.43
2018-11-03T10:30:14.816Z,27.73
2018-11-03T10:32:43.835Z,25.97
2018-11-03T10:35:13.239Z,25.47
2018-11-03T10:37:42.526Z,24.70
2018-11-03T10:40:14.424Z,24.60
2018-11-03T10:42:43.709Z,27.97
2018-11-03T10:45:44.532Z,28.17
2018-11-03T10:48:14.089Z,25.07
2018-11-03T10:50:43.032Z,21.00
2018-11-03T10:53:12.082Z,23.63
2018-11-03T10:55:40.968Z,23.20
2018-11-03T10:58:09.918Z,23.67
2018-11-03T11:00:44.170Z,25.63
2018-11-03T11:04:16.730Z,23.90
2018-11-03T11:06:51.050Z,25.93
2018-11-03T11:09:25.198Z,22.17
2018-11-03T11:11:59.264Z,19.17
2018-11-03T11:14:28.205Z,24.13
2018-11-03T11:16:57.200Z,18.03
2018-11-03T11:19:26.009Z,17.77
2018-11-03T11:21:54.905Z,14.90
2018-11-03T11:24:24.097Z,17.30
2018-11-03T11:26:53.320Z,18.73
2018-11-03T11:29:22.349Z,16.60
2018-11-03T11:31:51.231Z,14.00
2018-11-03T11:34:20.176Z,10.83
2018-11-03T11:36:49.042Z,13.07
2018-11-03T11:39:17.960Z,14.60
2018-11-03T11:41:46.809Z,15.27
2018-11-03T11:44:15.700Z,10.27
2018-11-03T11:46:44.543Z,10.20
2018-11-03T11:49:13.491Z,11.23
2018-11-03T11:51:42.376Z,11.03
2018-11-03T11:54:11.268Z,10.47
2018-11-03T11:56:40.120Z,12.50
2018-11-03T11:59:09.004Z,11.53
2018-11-03T12:01:37.845Z,12.33
2018-11-03T12:04:06.959Z,10.70
2018-11-03T12:06:35.855Z,9.20
2018-11-03T12:09:05.615Z,14.20
2018-11-03T12:11:34.455Z,7.77
2018-11-03T12:14:03.418Z,9.60
2018-11-03T12:16:32.270Z,7.43
2018-11-03T12:19:01.119Z,9.57
2018-11-03T12:21:30.197Z,8.23
2018-11-03T12:23:59.192Z,9.57
2018-11-03T12:26:28.224Z,11.10
2018-11-03T12:28:57.105Z,14.77
2018-11-03T12:31:26.009Z,11.27
2018-11-03T12:33:54.915Z,11.37
2018-11-03T12:36:23.820Z,9.17
2018-11-03T12:38:52.726Z,9.37
2018-11-03T12:41:21.591Z,11.50
2018-11-03T12:43:50.490Z,7.10
2018-11-03T12:46:19.362Z,12.40
2018-11-03T12:48:48.274Z,17.10
2018-11-03T12:51:17.128Z,15.60
2018-11-03T12:53:46.057Z,11.63
2018-11-03T12:56:15.091Z,12.27
2018-11-03T12:58:43.980Z,12.57
2018-11-03T13:01:16.353Z,13.70
2018-11-03T13:03:45.252Z,13.37
2018-11-03T13:06:14.223Z,12.60
2018-11-03T13:08:43.085Z,13.60
2018-11-03T13:11:11.949Z,19.93
2018-11-03T13:13:40.793Z,14.13
2018-11-03T13:16:09.683Z,18.13
2018-11-03T13:18:38.595Z,15.70
2018-11-03T13:21:07.438Z,16.97
2018-11-03T13:23:36.283Z,13.83
2018-11-03T13:26:05.241Z,14.87
2018-11-03T13:28:34.099Z,13.93
2018-11-03T13:31:03.003Z,12.57
2018-11-03T13:33:31.897Z,14.63
2018-11-03T13:36:00.735Z,14.03
2018-11-03T13:38:29.610Z,14.30
2018-11-03T13:40:58.523Z,13.83
2018-11-03T13:43:27.349Z,12.47
2018-11-03T13:45:56.209Z,14.03
2018-11-03T13:48:25.154Z,18.97
2018-11-03T13:50:54.047Z,14.57
2018-11-03T13:53:23.568Z,17.37
2018-11-03T13:55:52.441Z,12.70
2018-11-03T13:58:21.310Z,14.80
2018-11-03T14:00:50.163Z,14.73
2018-11-03T14:03:19.032Z,16.67
2018-11-03T14:05:47.912Z,14.47
2018-11-03T14:08:16.768Z,15.87
2018-11-03T14:10:45.645Z,19.37
2018-11-03T14:13:14.691Z,11.70
2018-11-03T14:15:43.612Z,13.97
2018-11-03T14:18:12.574Z,16.47
2018-11-03T14:20:41.479Z,15.20
2018-11-03T14:23:10.399Z,15.30
2018-11-03T14:25:39.289Z,14.50
2018-11-03T14:28:08.363Z,16.67
2018-11-03T14:30:37.212Z,14.37
2018-11-03T14:33:06.410Z,16.37
2018-11-03T14:35:35.249Z,13.23
2018-11-03T14:38:04.141Z,17.13
2018-11-03T14:40:33.930Z,14.83
2018-11-03T14:43:03.486Z,13.83
2018-11-03T14:45:32.451Z,17.37
2018-11-03T14:48:01.466Z,19.10
2018-11-03T14:50:33.501Z,18.03
2018-11-03T14:53:02.463Z,15.73
2018-11-03T14:55:31.333Z,17.03
2018-11-03T14:58:00.209Z,13.53
2018-11-03T15:00:29.138Z,14.80
2018-11-03T15:02:58.044Z,13.87
2018-11-03T15:05:26.880Z,15.27
2018-11-03T15:08:00.259Z,14.60
2018-11-03T15:10:29.135Z,13.63
2018-11-03T15:12:57.975Z,12.60
2018-11-03T15:15:26.842Z,17.63
2018-11-03T15:17:55.710Z,17.63
2018-11-03T15:20:24.542Z,11.13
2018-11-03T15:22:53.445Z,10.67
2018-11-03T15:25:22.304Z,11.13
2018-11-03T15:27:51.154Z,10.60
2018-11-03T15:30:19.988Z,9.57
2018-11-03T15:32:49.197Z,20.70
2018-11-03T15:35:18.046Z,8.77
2018-11-03T15:37:46.994Z,11.63
2018-11-03T15:40:16.344Z,13.53
2018-11-03T15:42:45.587Z,10.40
2018-11-03T15:45:15.556Z,11.40
2018-11-03T15:47:44.854Z,11.27
2018-11-03T15:50:14.993Z,13.07
2018-11-03T15:52:44.754Z,12.13
2018-11-03T15:55:14.565Z,9.17
2018-11-03T15:57:43.480Z,9.43
2018-11-03T16:00:21.479Z,9.80
2018-11-03T16:02:50.472Z,9.47
2018-11-03T16:05:19.453Z,7.97
2018-11-03T16:07:48.449Z,10.37
2018-11-03T16:10:17.387Z,8.97
2018-11-03T16:12:46.288Z,9.53
2018-11-03T16:15:15.271Z,10.50
2018-11-03T16:17:44.172Z,14.17
2018-11-03T16:20:13.706Z,11.20
2018-11-03T16:22:43.370Z,13.10
2018-11-03T16:25:12.331Z,14.20
2018-11-03T16:27:41.328Z,16.33
2018-11-03T16:30:13.573Z,17.50
2018-11-03T16:32:42.685Z,11.53
2018-11-03T16:35:11.542Z,14.97
2018-11-03T16:37:40.791Z,17.60
2018-11-03T16:40:11.361Z,18.03
2018-11-03T16:42:40.564Z,18.07
2018-11-03T16:45:10.945Z,20.33
2018-11-03T16:47:40.009Z,23.33
2018-11-03T16:50:10.143Z,22.87
2018-11-03T16:52:39.313Z,18.20
2018-11-03T16:55:08.892Z,23.07
2018-11-03T16:57:38.184Z,18.03
2018-11-03T17:00:08.660Z,19.37
2018-11-03T17:02:37.887Z,20.63
2018-11-03T17:05:07.592Z,20.43
2018-11-03T17:07:36.455Z,15.53
2018-11-03T17:10:07.324Z,14.73
2018-11-03T17:12:37.105Z,16.30
2018-11-03T17:15:05.946Z,13.33
2018-11-03T17:17:34.865Z,15.83
2018-11-03T17:20:04.774Z,19.53
2018-11-03T17:22:33.988Z,12.87
2018-11-03T17:25:02.904Z,12.47
2018-11-03T17:27:31.720Z,16.10
2018-11-03T17:30:00.661Z,11.60
2018-11-03T17:32:29.643Z,14.17
2018-11-03T17:34:58.547Z,17.07
2018-11-03T17:37:28.467Z,18.47
2018-11-03T17:39:57.559Z,21.13
2018-11-03T17:42:26.370Z,28.90
2018-11-03T17:44:55.333Z,28.50
2018-11-03T17:47:24.177Z,29.73
2018-11-03T17:49:53.134Z,20.70
2018-11-03T17:52:22.003Z,27.07
2018-11-03T17:54:50.925Z,40.60
2018-11-03T17:57:20.657Z,42.33
2018-11-03T17:59:49.656Z,37.77
2018-11-03T18:02:18.585Z,42.10
2018-11-03T18:04:47.502Z,45.63
2018-11-03T18:07:16.343Z,51.70
2018-11-03T18:09:45.189Z,46.77
2018-11-03T18:12:14.077Z,53.63
2018-11-03T18:14:43.630Z,52.40
2018-11-03T18:17:12.492Z,47.27
2018-11-03T18:19:41.380Z,51.20
2018-11-03T18:22:11.333Z,51.47
2018-11-03T18:24:40.290Z,41.63
2018-11-03T18:27:09.159Z,39.13
2018-11-03T18:29:38.025Z,28.43
2018-11-03T18:32:06.931Z,42.50
2018-11-03T18:34:35.739Z,31.67
2018-11-03T18:37:05.081Z,31.37
2018-11-03T18:39:34.069Z,24.77
2018-11-03T18:42:02.906Z,23.70
2018-11-03T18:44:31.791Z,18.20
2018-11-03T18:47:00.646Z,19.93
2018-11-03T18:49:29.665Z,18.57
2018-11-03T18:51:58.549Z,17.07
2018-11-03T18:54:27.369Z,18.30
2018-11-03T18:56:56.266Z,13.97
2018-11-03T18:59:25.114Z,18.27
2018-11-03T19:01:54.038Z,19.77
2018-11-03T19:04:22.891Z,18.07
2018-11-03T19:06:51.709Z,14.47
2018-11-03T19:09:20.630Z,14.97
2018-11-03T19:11:50.591Z,13.97
2018-11-03T19:14:19.450Z,18.40
2018-11-03T19:16:48.443Z,18.03
2018-11-03T19:19:17.396Z,17.60
2018-11-03T19:21:46.268Z,21.73
2018-11-03T19:24:15.228Z,13.93
2018-11-03T19:26:44.191Z,37.60
2018-11-03T19:29:13.004Z,22.23
2018-11-03T19:31:41.853Z,24.00
2018-11-03T19:34:10.680Z,29.83
2018-11-03T19:36:39.580Z,26.60
2018-11-03T19:39:09.195Z,28.27
2018-11-03T19:41:38.072Z,26.90
2018-11-03T19:44:06.999Z,23.97
2018-11-03T19:46:35.920Z,20.13
2018-11-03T19:49:05.198Z,16.43
2018-11-03T19:51:34.223Z,17.87
2018-11-03T19:54:03.131Z,23.07
2018-11-03T19:56:32.016Z,23.90
2018-11-03T19:59:00.946Z,24.97
2018-11-03T20:01:30.661Z,21.47
2018-11-03T20:03:59.541Z,26.47
2018-11-03T20:06:28.406Z,23.30
2018-11-03T20:08:57.289Z,19.37
2018-11-03T20:11:26.466Z,22.87
2018-11-03T20:13:55.391Z,22.33
2018-11-03T20:16:24.284Z,24.33
2018-11-03T20:18:53.112Z,21.33
2018-11-03T20:21:21.972Z,24.43
2018-11-03T20:23:50.846Z,23.80
2018-11-03T20:26:20.316Z,20.60
2018-11-03T20:28:49.240Z,28.37
2018-11-03T20:31:18.113Z,23.70
2018-11-03T20:33:46.949Z,24.50
2018-11-03T20:36:16.817Z,25.30
2018-11-03T20:38:45.699Z,20.83
2018-11-03T20:41:14.638Z,23.17
2018-11-03T20:43:43.578Z,22.77
2018-11-03T20:46:12.434Z,21.23
2018-11-03T20:48:41.359Z,31.90
2018-11-03T20:51:11.063Z,27.73
2018-11-03T20:53:40.514Z,27.43
2018-11-03T20:56:10.403Z,28.63
2018-11-03T20:58:39.300Z,28.93
2018-11-03T21:01:08.147Z,30.63
2018-11-03T21:03:37.110Z,29.30
2018-11-03T21:06:05.953Z,28.63
2018-11-03T21:08:34.863Z,24.60
2018-11-03T21:11:03.700Z,37.10
2018-11-03T21:13:32.545Z,28.20
2018-11-03T21:16:01.430Z,34.13
2018-11-03T21:18:30.362Z,31.30
2018-11-03T21:21:00.115Z,34.60
2018-11-03T21:23:29.214Z,32.53
2018-11-03T21:25:58.003Z,36.00
2018-11-03T21:28:26.933Z,33.63
2018-11-03T21:30:55.855Z,36.83
2018-11-03T21:33:24.782Z,35.93
2018-11-03T21:35:53.653Z,32.67
2018-11-03T21:38:22.521Z,35.40
2018-11-03T21:40:51.491Z,32.37
2018-11-03T21:43:20.963Z,38.07
2018-11-03T21:45:49.908Z,34.13
2018-11-03T21:48:18.921Z,34.10
2018-11-03T21:50:47.795Z,31.93
2018-11-03T21:53:16.685Z,33.20
2018-11-03T21:55:45.584Z,33.00
2018-11-03T21:58:14.436Z,34.97
2018-11-03T22:00:43.492Z,33.80
2018-11-03T22:03:12.330Z,34.10
2018-11-03T22:05:41.231Z,29.93
2018-11-03T22:08:10.079Z,32.37
2018-11-03T22:10:38.953Z,29.57
2018-11-03T22:13:07.797Z,30.60
2018-11-03T22:15:36.699Z,33.70
2018-11-03T22:18:05.717Z,33.33
2018-11-03T22:20:34.627Z,26.77
2018-11-03T22:23:03.499Z,40.30
2018-11-03T22:25:32.332Z,35.67
2018-11-03T22:28:01.272Z,31.23
2018-11-03T22:30:30.160Z,34.30
2018-11-03T22:32:59.032Z,35.07
2018-11-03T22:35:27.861Z,36.80
2018-11-03T22:37:56.757Z,35.07
2018-11-03T22:40:25.617Z,36.67
2018-11-03T22:42:55.084Z,34.30
2018-11-03T22:45:23.971Z,40.23
2018-11-03T22:47:52.781Z,36.53
2018-11-03T22:50:21.712Z,37.40
2018-11-03T22:52:50.690Z,35.80
2018-11-03T22:55:19.598Z,35.73
2018-11-03T22:57:48.429Z,35.70
2018-11-03T23:00:17.439Z,38.23
2018-11-03T23:02:46.280Z,36.43
2018-11-03T23:05:15.171Z,41.87
2018-11-03T23:07:44.049Z,38.77
2018-11-03T23:10:12.891Z,42.20
2018-11-03T23:12:41.850Z,37.60
2018-11-03T23:15:11.080Z,40.63
2018-11-03T23:17:39.976Z,32.30
2018-11-03T23:20:11.767Z,49.00
2018-11-03T23:22:40.904Z,48.27
2018-11-03T23:25:10.375Z,36.37
2018-11-03T23:27:39.268Z,42.50
2018-11-03T23:30:10.188Z,49.90
2018-11-03T23:32:39.128Z,43.50
2018-11-03T23:35:09.912Z,45.07
2018-11-03T23:37:39.264Z,40.57
2018-11-03T23:40:08.881Z,46.80
2018-11-03T23:42:37.969Z,46.83
2018-11-03T23:45:07.874Z,41.30
2018-11-03T23:47:36.727Z,44.50
2018-11-03T23:50:06.613Z,49.53
2018-11-03T23:52:35.930Z,49.83
2018-11-03T23:55:06.011Z,45.90
2018-11-03T23:57:34.844Z,41.83
